createdAt,value
2019-06-07T00:01:50.564Z,15.40
2019-06-07T00:04:21.497Z,15.40
2019-06-07T00:06:51.467Z,15.40
2019-06-07T00:09:22.501Z,15.30
2019-06-07T00:11:52.984Z,15.30
2019-06-07T00:14:22.750Z,15.30
2019-06-07T00:16:52.591Z,15.30
2019-06-07T00:19:22.448Z,15.30
2019-06-07T00:22:15.737Z,15.30
2019-06-07T00:24:23.667Z,15.30
2019-06-07T00:26:58.724Z,15.20
2019-06-07T00:29:25.056Z,15.20
2019-06-07T00:31:54.961Z,15.20
2019-06-07T00:34:25.131Z,15.10
2019-06-07T00:36:55.032Z,15.10
2019-06-07T00:39:26.053Z,15.00
2019-06-07T00:41:56.158Z,14.90
2019-06-07T00:44:25.958Z,14.90
2019-06-07T00:46:56.135Z,14.80
2019-06-07T00:49:40.913Z,14.70
2019-06-07T00:51:57.506Z,14.70
2019-06-07T00:54:27.278Z,14.60
2019-06-07T00:56:57.075Z,14.50
2019-06-07T00:59:29.422Z,14.40
2019-06-07T01:01:58.395Z,14.30
2019-06-07T01:04:28.227Z,14.20
2019-06-07T01:06:58.063Z,14.10
2019-06-07T01:09:27.911Z,14.00
2019-06-07T01:11:57.659Z,13.90
2019-06-07T01:14:28.766Z,13.80
2019-06-07T01:17:20.183Z,13.70
2019-06-07T01:19:30.798Z,13.60
2019-06-07T01:22:00.583Z,13.50
2019-06-07T01:24:30.373Z,13.40
2019-06-07T01:27:00.146Z,13.40
2019-06-07T01:29:31.168Z,13.30
2019-06-07T01:32:01.257Z,13.30
2019-06-07T01:34:31.073Z,13.20
2019-06-07T01:37:00.883Z,13.20
2019-06-07T01:39:31.882Z,13.10
2019-06-07T01:42:01.920Z,13.00
2019-06-07T01:44:31.947Z,13.00
2019-06-07T01:47:01.723Z,13.00
2019-06-07T01:49:31.522Z,12.90
2019-06-07T01:52:01.346Z,12.90
2019-06-07T01:57:02.603Z,12.80
2019-06-07T01:59:32.496Z,12.80
2019-06-07T02:02:02.330Z,12.80
2019-06-07T02:04:33.389Z,12.80
2019-06-07T02:07:03.659Z,12.80
2019-06-07T02:09:33.548Z,12.80
2019-06-07T02:12:24.655Z,12.80
2019-06-07T02:14:34.867Z,12.80
2019-06-07T02:17:04.860Z,12.80
2019-06-07T02:19:34.733Z,12.80
2019-06-07T02:22:04.519Z,12.80
2019-06-07T02:24:35.919Z,12.80
2019-06-07T02:27:06.079Z,12.80
2019-06-07T02:29:35.891Z,12.70
2019-06-07T02:32:05.759Z,12.70
2019-06-07T02:34:39.212Z,12.60
2019-06-07T02:37:06.981Z,12.60
2019-06-07T02:39:40.222Z,12.50
2019-06-07T02:42:08.327Z,12.50
2019-06-07T02:44:39.879Z,12.50
2019-06-07T02:47:09.590Z,12.40
2019-06-07T02:49:41.588Z,12.40
2019-06-07T02:52:10.907Z,12.40
2019-06-07T02:54:41.030Z,12.40
2019-06-07T02:57:10.988Z,12.50
2019-06-07T03:00:05.736Z,12.50
2019-06-07T03:02:12.353Z,12.60
2019-06-07T03:04:44.766Z,12.60
2019-06-07T03:07:15.253Z,12.50
2019-06-07T03:09:47.164Z,12.60
2019-06-07T03:12:19.080Z,12.60
2019-06-07T03:14:49.287Z,12.60
2019-06-07T03:17:38.357Z,12.70
2019-06-07T03:20:09.689Z,12.70
2019-06-07T03:22:42.660Z,12.70
2019-06-07T03:25:12.684Z,12.80
2019-06-07T03:27:49.437Z,12.80
2019-06-07T03:32:47.850Z,12.90
2019-06-07T03:35:17.577Z,13.00
2019-06-07T03:37:47.356Z,13.00
2019-06-07T03:40:17.158Z,13.10
2019-06-07T03:42:46.927Z,13.10
2019-06-07T03:45:16.700Z,13.20
2019-06-07T03:47:46.509Z,13.20
2019-06-07T03:50:16.412Z,13.20
2019-06-07T03:52:46.227Z,13.20
2019-06-07T03:55:16.088Z,13.20
2019-06-07T03:58:30.038Z,13.20
2019-06-07T04:00:17.402Z,13.20
2019-06-07T04:02:47.243Z,13.20
2019-06-07T04:05:17.079Z,13.20
2019-06-07T04:07:46.848Z,13.20
2019-06-07T04:10:17.072Z,13.20
2019-06-07T04:12:46.935Z,13.30
2019-06-07T04:15:16.819Z,13.30
2019-06-07T04:18:01.262Z,13.40
2019-06-07T04:20:18.113Z,13.50
2019-06-07T04:22:47.963Z,13.70
2019-06-07T04:25:17.860Z,13.80
2019-06-07T04:27:49.697Z,13.90
2019-06-07T04:30:39.537Z,14.00
2019-06-07T04:33:10.271Z,14.20
2019-06-07T04:35:42.985Z,14.30
2019-06-07T04:38:13.703Z,14.50
2019-06-07T04:40:44.248Z,14.70
2019-06-07T04:43:14.568Z,14.80
2019-06-07T04:45:50.921Z,15.00
2019-06-07T04:48:16.905Z,15.10
2019-06-07T04:50:48.008Z,15.10
2019-06-07T04:53:17.911Z,15.30
2019-06-07T04:55:47.679Z,15.40
2019-06-07T04:58:17.484Z,15.50
2019-06-07T05:00:53.195Z,15.60
2019-06-07T05:03:18.711Z,15.60
2019-06-07T05:05:48.601Z,15.70
2019-06-07T05:08:28.253Z,15.80
2019-06-07T05:10:49.975Z,16.00
2019-06-07T05:13:19.789Z,16.20
2019-06-07T05:15:49.599Z,16.40
2019-06-07T05:18:19.409Z,16.40
2019-06-07T05:20:49.178Z,16.60
2019-06-07T05:24:00.255Z,16.70
2019-06-07T05:25:50.481Z,16.70
2019-06-07T05:28:20.297Z,16.80
2019-06-07T05:31:03.907Z,16.80
2019-06-07T05:33:21.613Z,16.70
2019-06-07T05:35:51.440Z,16.70
2019-06-07T05:38:21.339Z,16.70
2019-06-07T05:40:51.117Z,16.60
2019-06-07T05:43:28.393Z,16.60
2019-06-07T05:45:58.296Z,16.60
2019-06-07T05:48:28.099Z,16.70
2019-06-07T05:50:58.024Z,16.70
2019-06-07T05:53:28.354Z,16.90
2019-06-07T05:55:58.270Z,17.10
2019-06-07T05:58:28.068Z,17.40
2019-06-07T06:01:41.089Z,17.60
2019-06-07T06:03:29.437Z,17.60
2019-06-07T06:05:59.253Z,17.70
2019-06-07T06:08:29.049Z,17.80
2019-06-07T06:10:59.008Z,17.90
2019-06-07T06:13:28.897Z,17.90
2019-06-07T06:16:02.016Z,18.10
2019-06-07T06:18:30.140Z,18.30
2019-06-07T06:21:16.336Z,18.40
2019-06-07T06:23:31.566Z,18.50
2019-06-07T06:26:01.384Z,18.50
2019-06-07T06:28:31.300Z,18.60
2019-06-07T06:31:01.174Z,18.80
2019-06-07T06:33:34.499Z,19.00
2019-06-07T06:36:02.506Z,19.10
2019-06-07T06:38:32.390Z,19.00
2019-06-07T06:41:15.198Z,19.00
2019-06-07T06:43:33.650Z,19.00
2019-06-07T06:46:03.437Z,19.00
2019-06-07T06:48:33.359Z,19.10
2019-06-07T06:51:03.140Z,19.00
2019-06-07T06:53:32.927Z,19.10
2019-06-07T06:56:02.764Z,19.20
2019-06-07T06:59:18.809Z,19.40
2019-06-07T07:01:06.782Z,19.40
2019-06-07T07:03:57.525Z,19.60
2019-06-07T07:06:25.124Z,19.70
2019-06-07T07:08:43.349Z,19.80
2019-06-07T07:11:13.208Z,19.90
2019-06-07T07:13:48.144Z,20.10
2019-06-07T07:16:14.778Z,20.30
2019-06-07T07:18:46.913Z,20.50
2019-06-07T07:21:16.147Z,20.70
2019-06-07T07:24:08.551Z,20.60
2019-06-07T07:26:17.628Z,20.40
2019-06-07T07:28:53.952Z,20.30
2019-06-07T07:31:18.928Z,20.30
2019-06-07T07:36:38.063Z,20.50
2019-06-07T07:39:00.726Z,20.60
2019-06-07T07:41:23.188Z,20.90
2019-06-07T07:44:05.283Z,21.10
2019-06-07T07:46:29.724Z,21.30
2019-06-07T07:48:56.350Z,21.50
2019-06-07T07:51:26.280Z,21.60
2019-06-07T07:54:09.333Z,21.50
2019-06-07T07:56:27.795Z,21.50
2019-06-07T07:59:02.101Z,21.30
2019-06-07T08:01:29.269Z,21.00
2019-06-07T08:03:59.123Z,20.90
2019-06-07T08:06:29.037Z,21.00
2019-06-07T08:08:59.184Z,21.00
2019-06-07T08:11:29.455Z,21.00
2019-06-07T08:13:59.551Z,21.20
2019-06-07T08:16:29.383Z,21.40
2019-06-07T08:19:04.000Z,21.60
2019-06-07T08:21:30.739Z,22.00
2019-06-07T08:24:04.216Z,22.40
2019-06-07T08:26:32.217Z,22.60
2019-06-07T08:29:02.998Z,22.70
2019-06-07T08:31:33.213Z,22.80
2019-06-07T08:34:03.100Z,23.10
2019-06-07T08:36:41.789Z,23.30
2019-06-07T08:39:07.756Z,23.40
2019-06-07T08:41:53.405Z,23.40
2019-06-07T08:44:22.694Z,23.30
2019-06-07T08:46:41.558Z,23.10
2019-06-07T08:49:11.398Z,23.00
2019-06-07T08:51:41.272Z,22.90
2019-06-07T08:54:22.434Z,23.00
2019-06-07T08:56:43.639Z,23.30
2019-06-07T08:59:18.229Z,23.60
2019-06-07T09:01:57.980Z,23.70
2019-06-07T09:04:27.772Z,23.80
2019-06-07T09:07:09.194Z,23.80
2019-06-07T09:09:34.700Z,24.00
2019-06-07T09:12:10.726Z,23.90
2019-06-07T09:14:59.619Z,23.60
2019-06-07T09:17:18.969Z,23.20
2019-06-07T09:19:58.197Z,23.00
2019-06-07T09:22:30.571Z,23.00
2019-06-07T09:25:21.078Z,22.90
2019-06-07T09:27:50.113Z,23.00
2019-06-07T09:30:44.672Z,23.20
2019-06-07T09:33:15.323Z,23.40
2019-06-07T09:35:48.917Z,23.70
2019-06-07T09:38:26.825Z,23.70
2019-06-07T09:41:02.582Z,23.60
2019-06-07T09:46:12.861Z,24.00
2019-06-07T09:51:19.588Z,24.40
2019-06-07T09:53:45.307Z,24.50
2019-06-07T09:56:15.293Z,24.50
2019-06-07T09:58:51.977Z,24.50
2019-06-07T10:01:16.551Z,24.40
2019-06-07T10:03:46.317Z,24.40
2019-06-07T10:06:16.122Z,24.40
2019-06-07T10:10:04.708Z,24.40
2019-06-07T10:11:17.490Z,24.40
2019-06-07T10:13:47.298Z,24.30
2019-06-07T10:16:17.170Z,24.40
2019-06-07T10:18:47.249Z,24.40
2019-06-07T10:21:17.501Z,24.40
2019-06-07T10:23:47.314Z,24.20
2019-06-07T10:26:17.132Z,24.10
2019-06-07T10:28:47.093Z,24.00
2019-06-07T10:31:16.886Z,23.80
2019-06-07T10:33:46.675Z,23.70
2019-06-07T10:36:16.514Z,23.50
2019-06-07T10:38:46.250Z,23.40
2019-06-07T10:41:16.136Z,23.30
2019-06-07T10:43:45.914Z,23.30
2019-06-07T10:46:15.680Z,23.20
2019-06-07T10:48:45.485Z,23.10
2019-06-07T10:51:15.268Z,22.90
2019-06-07T10:53:45.076Z,22.90
2019-06-07T10:56:14.836Z,22.90
2019-06-07T10:58:44.630Z,22.80
2019-06-07T11:01:14.584Z,22.70
2019-06-07T11:03:44.461Z,22.80
2019-06-07T11:06:14.459Z,22.80
2019-06-07T11:08:44.440Z,22.80
2019-06-07T11:11:14.493Z,22.80
2019-06-07T11:13:44.426Z,22.90
2019-06-07T11:16:15.601Z,22.80
2019-06-07T11:18:45.694Z,22.70
2019-06-07T11:21:24.241Z,22.70
2019-06-07T11:23:54.113Z,22.90
2019-06-07T11:26:23.980Z,23.30
2019-06-07T11:28:53.795Z,23.50
2019-06-07T11:31:23.541Z,23.70
2019-06-07T11:33:53.328Z,24.00
2019-06-07T11:36:23.130Z,24.10
2019-06-07T11:38:52.926Z,24.20
2019-06-07T11:41:22.652Z,24.20
2019-06-07T11:43:52.440Z,24.20
2019-06-07T11:46:29.620Z,24.30
2019-06-07T11:48:59.458Z,24.30
2019-06-07T11:51:29.371Z,24.40
2019-06-07T11:54:20.340Z,24.30
2019-06-07T11:56:49.644Z,24.30
2019-06-07T11:59:19.393Z,24.20
2019-06-07T12:01:49.155Z,24.20
2019-06-07T12:04:32.435Z,24.00
2019-06-07T12:06:50.409Z,24.00
2019-06-07T12:09:20.219Z,23.90
2019-06-07T12:11:49.985Z,24.00
2019-06-07T12:14:19.800Z,24.10
2019-06-07T12:16:49.511Z,24.20
2019-06-07T12:19:19.813Z,24.10
2019-06-07T12:21:49.661Z,24.10
2019-06-07T12:24:21.069Z,24.10
2019-06-07T12:26:51.012Z,24.20
2019-06-07T12:29:21.128Z,24.40
2019-06-07T12:31:51.096Z,24.40
2019-06-07T12:34:21.674Z,24.60
2019-06-07T12:36:51.693Z,24.70
2019-06-07T12:39:22.269Z,24.80
2019-06-07T12:41:52.215Z,25.00
2019-06-07T12:44:22.852Z,25.10
2019-06-07T12:46:52.678Z,25.10
2019-06-07T12:49:23.580Z,25.10
2019-06-07T12:51:53.481Z,25.10
2019-06-07T12:54:23.879Z,25.10
2019-06-07T12:56:54.573Z,25.20
2019-06-07T12:59:24.438Z,25.40
2019-06-07T13:01:54.273Z,25.50
2019-06-07T13:04:25.000Z,25.70
2019-06-07T13:06:54.868Z,25.70
2019-06-07T13:09:24.727Z,25.60
2019-06-07T13:11:54.890Z,25.80
2019-06-07T13:14:24.693Z,25.90
2019-06-07T13:16:55.564Z,26.10
2019-06-07T13:19:25.614Z,26.30
2019-06-07T13:21:55.487Z,26.30
2019-06-07T13:24:25.393Z,26.50
2019-06-07T13:26:55.292Z,26.70
2019-06-07T13:29:29.285Z,26.70
2019-06-07T13:31:56.621Z,26.90
2019-06-07T13:34:26.487Z,27.00
2019-06-07T13:36:56.241Z,27.10
2019-06-07T13:39:29.280Z,27.00
2019-06-07T13:41:57.522Z,27.00
2019-06-07T13:44:27.342Z,27.10
2019-06-07T13:46:57.130Z,27.10
2019-06-07T13:49:27.838Z,27.00
2019-06-07T13:51:57.723Z,27.00
2019-06-07T13:54:27.809Z,27.00
2019-06-07T13:57:02.679Z,26.80
2019-06-07T13:59:29.211Z,26.80
2019-06-07T14:01:59.031Z,26.80
2019-06-07T14:04:29.166Z,26.80
2019-06-07T14:06:59.008Z,26.80
2019-06-07T14:09:29.787Z,26.80
2019-06-07T14:12:02.128Z,26.90
2019-06-07T14:14:31.928Z,26.80
2019-06-07T14:17:01.710Z,26.70
2019-06-07T14:19:31.495Z,26.70
2019-06-07T14:22:01.519Z,26.70
2019-06-07T14:24:31.472Z,26.70
2019-06-07T14:27:07.322Z,26.70
2019-06-07T14:29:38.178Z,26.60
2019-06-07T14:32:08.705Z,26.50
2019-06-07T14:34:38.603Z,26.50
2019-06-07T14:37:08.373Z,26.60
2019-06-07T14:39:38.236Z,26.60
2019-06-07T14:42:10.193Z,26.70
2019-06-07T14:44:39.605Z,26.70
2019-06-07T14:47:09.409Z,26.70
2019-06-07T14:49:39.259Z,26.80
2019-06-07T14:52:09.036Z,26.80
2019-06-07T14:54:39.438Z,26.80
2019-06-07T14:57:09.469Z,26.70
2019-06-07T14:59:39.292Z,26.70
2019-06-07T15:02:09.427Z,26.60
2019-06-07T15:04:42.863Z,26.60
2019-06-07T15:07:14.569Z,26.50
2019-06-07T15:09:44.724Z,26.40
2019-06-07T15:12:24.760Z,26.40
2019-06-07T15:14:46.285Z,26.40
2019-06-07T15:17:16.092Z,26.40
2019-06-07T15:19:45.870Z,26.40
2019-06-07T15:22:15.807Z,26.30
2019-06-07T15:24:45.597Z,26.30
2019-06-07T15:27:15.525Z,26.20
2019-06-07T15:29:45.375Z,26.20
2019-06-07T15:32:15.499Z,26.20
2019-06-07T15:34:45.545Z,26.20
2019-06-07T15:37:15.562Z,26.10
2019-06-07T15:39:48.224Z,26.10
2019-06-07T15:42:18.291Z,26.00
2019-06-07T15:44:48.227Z,26.00
2019-06-07T15:47:18.341Z,25.90
2019-06-07T15:49:48.736Z,25.80
2019-06-07T15:52:19.449Z,25.80
2019-06-07T15:54:49.507Z,25.80
2019-06-07T15:57:20.021Z,25.80
2019-06-07T15:59:50.585Z,25.70
2019-06-07T16:02:20.852Z,25.70
2019-06-07T16:04:51.468Z,25.70
2019-06-07T16:07:22.660Z,25.60
2019-06-07T16:10:08.616Z,25.60
2019-06-07T16:12:59.169Z,25.60
2019-06-07T16:15:22.359Z,25.50
2019-06-07T16:17:52.887Z,25.40
2019-06-07T16:20:23.259Z,25.40
2019-06-07T16:22:53.336Z,25.40
2019-06-07T16:25:23.633Z,25.40
2019-06-07T16:27:53.991Z,25.40
2019-06-07T16:30:25.579Z,25.40
2019-06-07T16:32:56.267Z,25.40
2019-06-07T16:35:26.813Z,25.30
2019-06-07T16:37:56.974Z,25.30
2019-06-07T16:40:27.069Z,25.20
2019-06-07T16:43:13.296Z,25.20
2019-06-07T16:45:30.298Z,25.10
2019-06-07T16:48:00.649Z,25.10
2019-06-07T16:50:30.872Z,25.10
2019-06-07T16:53:01.112Z,25.10
2019-06-07T16:55:31.130Z,25.00
2019-06-07T16:58:01.045Z,25.10
2019-06-07T17:00:30.992Z,25.10
2019-06-07T17:03:01.170Z,25.10
2019-06-07T17:05:31.791Z,25.00
2019-06-07T17:08:01.947Z,25.00
2019-06-07T17:10:32.367Z,25.00
2019-06-07T17:13:03.107Z,25.00
2019-06-07T17:15:35.555Z,25.00
2019-06-07T17:18:16.855Z,25.00
2019-06-07T17:20:49.837Z,25.00
2019-06-07T17:23:23.345Z,24.90
2019-06-07T17:25:57.507Z,24.90
2019-06-07T17:28:39.752Z,24.90
2019-06-07T17:31:11.309Z,24.90
2019-06-07T17:33:46.597Z,24.80
2019-06-07T17:36:22.206Z,24.70
2019-06-07T17:38:52.452Z,24.60
2019-06-07T17:41:22.511Z,24.60
2019-06-07T17:43:59.769Z,24.50
2019-06-07T17:46:31.249Z,24.50
2019-06-07T17:49:07.946Z,24.40
2019-06-07T17:51:41.692Z,24.20
2019-06-07T17:54:25.131Z,24.10
2019-06-07T17:56:54.928Z,24.00
2019-06-07T17:59:24.681Z,23.90
2019-06-07T18:02:13.469Z,23.80
2019-06-07T18:04:26.265Z,23.80
2019-06-07T18:06:56.778Z,23.60
2019-06-07T18:09:27.307Z,23.50
2019-06-07T18:11:58.447Z,23.40
2019-06-07T18:14:28.303Z,23.30
2019-06-07T18:16:58.955Z,23.30
2019-06-07T18:19:28.731Z,23.20
2019-06-07T18:21:59.215Z,23.10
2019-06-07T18:24:29.209Z,23.00
2019-06-07T18:26:59.273Z,22.90
2019-06-07T18:29:29.097Z,22.70
2019-06-07T18:32:00.384Z,22.60
2019-06-07T18:34:30.294Z,22.50
2019-06-07T18:37:00.068Z,22.40
2019-06-07T18:39:29.904Z,22.40
2019-06-07T18:41:59.772Z,22.30
2019-06-07T18:44:29.670Z,22.30
2019-06-07T18:46:59.458Z,22.20
2019-06-07T18:49:29.278Z,22.10
2019-06-07T18:52:24.487Z,22.10
2019-06-07T18:54:55.087Z,22.00
2019-06-07T18:57:25.593Z,22.00
2019-06-07T18:59:56.548Z,21.90
2019-06-07T19:02:26.706Z,21.80
2019-06-07T19:04:56.711Z,21.60
2019-06-07T19:07:27.003Z,21.40
2019-06-07T19:09:57.006Z,21.30
2019-06-07T19:12:26.872Z,21.10
2019-06-07T19:14:57.591Z,21.00
2019-06-07T19:17:27.742Z,20.90
2019-06-07T19:19:58.295Z,20.80
2019-06-07T19:22:28.419Z,20.60
2019-06-07T19:24:58.486Z,20.50
2019-06-07T19:27:28.361Z,20.40
2019-06-07T19:30:01.025Z,20.30
2019-06-07T19:32:30.579Z,20.20
2019-06-07T19:35:01.659Z,20.10
2019-06-07T19:37:32.197Z,20.10
2019-06-07T19:40:02.791Z,20.00
2019-06-07T19:42:32.863Z,19.90
2019-06-07T19:45:27.044Z,19.90
2019-06-07T19:47:34.579Z,19.90
2019-06-07T19:50:05.818Z,19.80
2019-06-07T19:52:38.300Z,19.80
2019-06-07T19:55:09.714Z,19.70
2019-06-07T19:57:42.774Z,19.60
2019-06-07T20:00:14.917Z,19.50
2019-06-07T20:02:45.407Z,19.50
2019-06-07T20:05:16.473Z,19.40
2019-06-07T20:07:46.652Z,19.40
2019-06-07T20:10:18.117Z,19.40
2019-06-07T20:12:48.776Z,19.40
2019-06-07T20:15:28.897Z,19.40
2019-06-07T20:17:55.139Z,19.40
2019-06-07T20:20:25.218Z,19.40
2019-06-07T20:22:56.674Z,19.50
2019-06-07T20:25:26.728Z,19.50
2019-06-07T20:27:57.076Z,19.50
2019-06-07T20:30:27.414Z,19.40
2019-06-07T20:32:57.655Z,19.40
2019-06-07T20:35:27.638Z,19.20
2019-06-07T20:37:58.939Z,19.10
2019-06-07T20:40:29.171Z,19.10
2019-06-07T20:42:59.368Z,19.10
2019-06-07T20:45:33.669Z,19.10
2019-06-07T20:48:01.992Z,19.10
2019-06-07T20:50:32.071Z,19.10
2019-06-07T20:53:03.140Z,19.10
2019-06-07T20:55:36.648Z,19.00
2019-06-07T20:58:07.277Z,19.00
2019-06-07T21:00:37.329Z,18.90
2019-06-07T21:03:07.458Z,18.90
2019-06-07T21:05:37.503Z,18.90
2019-06-07T21:08:09.804Z,18.90
2019-06-07T21:10:38.758Z,18.90
2019-06-07T21:13:10.112Z,18.90
2019-06-07T21:15:48.282Z,18.90
2019-06-07T21:18:18.803Z,18.80
2019-06-07T21:20:43.022Z,18.80
2019-06-07T21:23:13.154Z,18.80
2019-06-07T21:25:43.286Z,18.80
2019-06-07T21:28:14.295Z,18.80
2019-06-07T21:30:46.327Z,18.80
2019-06-07T21:33:18.603Z,18.80
2019-06-07T21:35:48.795Z,18.80
2019-06-07T21:38:18.570Z,18.80
2019-06-07T21:40:48.383Z,18.70
2019-06-07T21:43:18.152Z,18.70
2019-06-07T21:46:04.460Z,18.70
2019-06-07T21:48:22.671Z,18.70
2019-06-07T21:50:52.472Z,18.70
2019-06-07T21:53:22.314Z,18.60
2019-06-07T21:55:52.085Z,18.60
2019-06-07T21:58:21.836Z,18.60
2019-06-07T22:01:14.992Z,18.50
2019-06-07T22:03:44.706Z,18.50
2019-06-07T22:06:14.867Z,18.40
2019-06-07T22:08:44.712Z,18.40
2019-06-07T22:11:14.684Z,18.30
2019-06-07T22:13:44.565Z,18.30
2019-06-07T22:16:26.229Z,18.20
2019-06-07T22:18:45.754Z,18.10
2019-06-07T22:21:15.542Z,18.10
2019-06-07T22:23:45.281Z,18.10
2019-06-07T22:26:15.653Z,18.00
2019-06-07T22:28:45.610Z,17.90
2019-06-07T22:31:15.448Z,17.90
2019-06-07T22:33:45.256Z,17.80
2019-06-07T22:36:16.001Z,17.80
2019-06-07T22:38:45.952Z,17.70
2019-06-07T22:41:15.955Z,17.60
2019-06-07T22:43:45.890Z,17.60
2019-06-07T22:46:15.647Z,17.70
2019-06-07T22:48:45.461Z,17.70
2019-06-07T22:51:16.412Z,17.70
2019-06-07T22:53:46.473Z,17.70
2019-06-07T22:56:30.571Z,17.70
2019-06-07T22:59:00.375Z,17.70
2019-06-07T23:01:30.147Z,17.70
2019-06-07T23:03:59.922Z,17.70
2019-06-07T23:06:29.699Z,17.60
2019-06-07T23:08:59.542Z,17.60
2019-06-07T23:11:29.283Z,17.50
2019-06-07T23:13:59.096Z,17.50
2019-06-07T23:16:28.895Z,17.40
2019-06-07T23:18:58.683Z,17.40
2019-06-07T23:21:28.388Z,17.30
2019-06-07T23:23:58.230Z,17.30
2019-06-07T23:26:28.057Z,17.30
2019-06-07T23:28:57.880Z,17.20
2019-06-07T23:31:27.634Z,17.10
2019-06-07T23:33:57.594Z,17.10
2019-06-07T23:36:27.376Z,17.00
2019-06-07T23:38:57.161Z,17.00
2019-06-07T23:41:26.973Z,16.90
2019-06-07T23:43:56.837Z,16.80
2019-06-07T23:46:26.612Z,16.70
2019-06-07T23:48:56.407Z,16.70
2019-06-07T23:51:26.185Z,16.70
2019-06-07T23:53:55.984Z,16.60
2019-06-07T23:56:25.752Z,16.50
2019-06-07T23:58:55.557Z,16.50
